Terminal Aerodrome Forecast
Issued by NWS Omaha/Valley, NE

Home | Current Version | Previous Version | Graphics & Text | Print | Product List | Glossary On
Versions: 1 2 3 4 5 6 7 8 9 10 11 12 13 14 15 16 17 18 19 20 21 22 23 24 25 26 27 28 29 30 31 32 33 34 35 36 37 38 39 40 41 42 43 44 45 46 47 48 49 50
000
FTUS43 KOAX 302206 AAB
TAFOFK
TAF AMD
KOFK 302206Z 3022/0118 03018G28KT 4SM RA BR OVC012
      TEMPO 3023/0102 1SM RASN BR OVC008
     FM010200 36018G26KT 2SM -RASN OVC008
     FM010400 34017G24KT 1 1/2SM -SN OVC005
     FM011100 32018KT 6SM -SN OVC008
     FM011200 32018KT P6SM OVC008
     FM011600 32017G28KT P6SM BKN050=

USA.gov is the U.S. government's official web portal to all federal, state and local government web resources and services.